createdAt,value
2019-02-22T00:00:11.885Z,6.26
2019-02-22T00:02:40.738Z,6.39
2019-02-22T00:05:09.779Z,6.35
2019-02-22T00:07:38.780Z,6.40
2019-02-22T00:10:07.897Z,6.41
2019-02-22T00:12:36.758Z,6.43
2019-02-22T00:15:06.418Z,6.41
2019-02-22T00:17:35.357Z,6.54
2019-02-22T00:20:05.610Z,6.55
2019-02-22T00:22:34.537Z,6.59
2019-02-22T00:25:03.578Z,6.53
2019-02-22T00:27:32.497Z,6.56
2019-02-22T00:30:01.388Z,6.65
2019-02-22T00:32:30.478Z,6.65
2019-02-22T00:34:59.356Z,6.75
2019-02-22T00:37:28.405Z,6.73
2019-02-22T00:42:43.899Z,6.78
2019-02-22T00:45:12.779Z,6.74
2019-02-22T00:47:41.721Z,6.82
2019-02-22T00:50:10.641Z,6.84
2019-02-22T00:52:39.519Z,6.74
2019-02-22T00:55:08.660Z,6.82
2019-02-22T00:57:37.543Z,6.81
2019-02-22T01:00:09.100Z,6.78
2019-02-22T01:02:38.121Z,6.83
2019-02-22T01:05:07.280Z,6.79
2019-02-22T01:07:36.302Z,6.77
2019-02-22T01:10:06.049Z,6.78
2019-02-22T01:12:35.061Z,6.78
2019-02-22T01:15:04.540Z,6.76
2019-02-22T01:17:34.162Z,6.76
2019-02-22T01:20:03.024Z,6.77
2019-02-22T01:22:31.940Z,6.73
2019-02-22T01:25:00.821Z,6.76
2019-02-22T01:27:29.801Z,6.76
2019-02-22T01:29:58.680Z,6.71
2019-02-22T01:32:27.734Z,6.76
2019-02-22T01:34:56.654Z,6.74
2019-02-22T01:37:25.741Z,6.76
2019-02-22T01:39:54.721Z,6.78
2019-02-22T01:42:23.601Z,6.78
2019-02-22T01:44:52.603Z,6.81
2019-02-22T01:47:21.489Z,6.80
2019-02-22T01:49:50.734Z,6.76
2019-02-22T01:52:19.661Z,6.69
2019-02-22T01:54:48.561Z,6.74
2019-02-22T01:57:17.440Z,6.71
2019-02-22T01:59:46.482Z,6.78
2019-02-22T02:02:15.461Z,6.77
2019-02-22T02:04:44.480Z,6.75
2019-02-22T02:07:13.580Z,6.81
2019-02-22T02:09:42.560Z,6.82
2019-02-22T02:12:11.523Z,6.74
2019-02-22T02:14:40.380Z,6.76
2019-02-22T02:17:09.262Z,6.75
2019-02-22T02:19:38.240Z,6.74
2019-02-22T02:22:07.100Z,6.79
2019-02-22T02:24:36.440Z,6.82
2019-02-22T02:27:05.621Z,6.85
2019-02-22T02:29:34.600Z,6.87
2019-02-22T02:32:03.501Z,6.86
2019-02-22T02:34:32.361Z,6.86
2019-02-22T02:37:01.301Z,6.84
2019-02-22T02:39:30.200Z,6.74
2019-02-22T02:41:59.081Z,6.77
2019-02-22T02:44:28.022Z,6.81
2019-02-22T02:46:56.922Z,6.80
2019-02-22T02:49:25.840Z,6.86
2019-02-22T02:51:54.772Z,6.88
2019-02-22T02:54:23.825Z,6.86
2019-02-22T02:56:52.922Z,6.88
2019-02-22T02:59:21.883Z,6.86
2019-02-22T03:01:50.880Z,6.94
2019-02-22T03:04:20.023Z,6.93
2019-02-22T03:06:50.881Z,6.99
2019-02-22T03:09:19.801Z,7.00
2019-02-22T03:11:48.880Z,6.99
2019-02-22T03:14:18.021Z,7.02
2019-02-22T03:16:47.055Z,7.04
2019-02-22T03:19:15.982Z,7.04
2019-02-22T03:21:44.900Z,7.05
2019-02-22T03:24:13.863Z,7.01
2019-02-22T03:26:42.723Z,6.99
2019-02-22T03:29:11.642Z,7.00
2019-02-22T03:31:40.603Z,6.96
2019-02-22T03:34:09.602Z,6.96
2019-02-22T03:36:38.525Z,6.98
2019-02-22T03:39:07.461Z,6.98
2019-02-22T03:41:36.349Z,6.98
2019-02-22T03:44:05.222Z,7.00
2019-02-22T03:46:34.317Z,6.97
2019-02-22T03:49:03.300Z,6.95
2019-02-22T03:51:32.442Z,6.98
2019-02-22T03:54:01.341Z,6.86
2019-02-22T03:56:30.304Z,6.76
2019-02-22T03:58:59.342Z,6.64
2019-02-22T04:01:28.303Z,6.55
2019-02-22T04:03:57.200Z,6.40
2019-02-22T04:06:26.140Z,6.37
2019-02-22T04:08:55.020Z,6.27
2019-02-22T04:11:23.904Z,6.14
2019-02-22T04:13:52.800Z,6.04
2019-02-22T04:16:21.680Z,5.93
2019-02-22T04:18:50.560Z,5.86
2019-02-22T04:21:19.420Z,5.80
2019-02-22T04:23:48.342Z,5.79
2019-02-22T04:26:17.282Z,5.76
2019-02-22T04:28:46.239Z,5.75
2019-02-22T04:31:15.142Z,5.66
2019-02-22T04:33:44.234Z,5.72
2019-02-22T04:36:13.221Z,5.73
2019-02-22T04:38:42.062Z,5.71
2019-02-22T04:41:11.061Z,5.52
2019-02-22T04:43:39.920Z,5.39
2019-02-22T04:46:08.921Z,5.31
2019-02-22T04:48:37.942Z,5.22
2019-02-22T04:51:07.100Z,5.15
2019-02-22T04:53:36.280Z,4.96
2019-02-22T04:56:05.246Z,4.83
2019-02-22T04:58:34.243Z,4.51
2019-02-22T05:01:03.101Z,4.30
2019-02-22T05:03:32.123Z,4.16
2019-02-22T05:06:01.044Z,4.04
2019-02-22T05:08:29.919Z,3.95
2019-02-22T05:10:58.957Z,3.71
2019-02-22T05:13:27.903Z,3.59
2019-02-22T05:15:56.898Z,3.49
2019-02-22T05:18:25.781Z,3.33
2019-02-22T05:20:54.688Z,2.98
2019-02-22T05:23:23.599Z,2.85
2019-02-22T05:25:52.523Z,2.64
2019-02-22T05:28:21.420Z,2.41
2019-02-22T05:30:50.285Z,2.38
2019-02-22T05:33:19.241Z,2.30
2019-02-22T05:35:48.118Z,2.17
2019-02-22T05:38:17.052Z,2.16
2019-02-22T05:40:45.906Z,2.09
2019-02-22T05:43:14.841Z,1.96
2019-02-22T05:45:43.803Z,1.98
2019-02-22T05:48:12.759Z,1.97
2019-02-22T05:50:41.660Z,1.91
2019-02-22T05:53:10.521Z,1.97
2019-02-22T05:55:39.423Z,1.90
2019-02-22T05:58:08.300Z,1.73
2019-02-22T06:00:37.283Z,1.69
2019-02-22T06:03:06.219Z,1.66
2019-02-22T06:05:35.120Z,1.65
2019-02-22T06:08:04.146Z,1.57
2019-02-22T06:10:33.011Z,1.63
2019-02-22T06:13:02.041Z,1.62
2019-02-22T06:15:31.624Z,1.72
2019-02-22T06:18:00.639Z,1.66
2019-02-22T06:20:29.520Z,1.76
2019-02-22T06:22:58.382Z,1.77
2019-02-22T06:25:27.369Z,1.78
2019-02-22T06:27:56.260Z,1.69
2019-02-22T06:30:25.162Z,1.61
2019-02-22T06:32:54.043Z,1.55
2019-02-22T06:35:22.921Z,1.54
2019-02-22T06:37:51.804Z,1.50
2019-02-22T06:40:20.782Z,1.66
2019-02-22T06:42:49.641Z,1.57
2019-02-22T06:45:18.619Z,1.46
2019-02-22T06:47:47.477Z,1.42
2019-02-22T06:50:16.421Z,1.35
2019-02-22T06:52:45.286Z,1.30
2019-02-22T06:55:14.342Z,1.23
2019-02-22T06:57:43.239Z,1.17
2019-02-22T07:00:13.620Z,1.26
2019-02-22T07:02:42.724Z,1.35
2019-02-22T07:05:11.757Z,1.38
2019-02-22T07:07:40.642Z,1.32
2019-02-22T07:10:11.062Z,1.25
2019-02-22T07:12:44.661Z,1.30
2019-02-22T07:15:12.905Z,1.12
2019-02-22T07:17:41.841Z,1.09
2019-02-22T07:20:11.967Z,1.01
2019-02-22T07:22:40.884Z,1.04
2019-02-22T07:25:11.939Z,1.08
2019-02-22T07:27:40.800Z,1.00
2019-02-22T07:30:11.721Z,1.03
2019-02-22T07:32:40.720Z,1.02
2019-02-22T07:35:10.060Z,1.11
2019-02-22T07:37:38.961Z,1.15
2019-02-22T07:40:08.180Z,1.14
2019-02-22T07:42:37.038Z,0.97
2019-02-22T07:45:09.020Z,0.81
2019-02-22T07:47:38.020Z,0.74
2019-02-22T07:50:09.501Z,0.79
2019-02-22T07:52:38.358Z,0.80
2019-02-22T07:55:08.919Z,0.80
2019-02-22T07:57:39.993Z,0.65
2019-02-22T08:00:11.840Z,0.69
2019-02-22T08:02:40.721Z,0.78
2019-02-22T08:05:09.699Z,0.78
2019-02-22T08:07:39.288Z,0.73
2019-02-22T08:10:08.264Z,0.69
2019-02-22T08:12:37.180Z,0.48
2019-02-22T08:15:08.060Z,0.51
2019-02-22T08:17:37.021Z,0.54
2019-02-22T08:20:08.021Z,0.56
2019-02-22T08:22:36.980Z,0.53
2019-02-22T08:25:07.480Z,0.51
2019-02-22T08:27:36.482Z,0.62
2019-02-22T08:30:07.701Z,0.51
2019-02-22T08:32:36.641Z,0.33
2019-02-22T08:35:06.641Z,0.41
2019-02-22T08:37:35.520Z,0.38
2019-02-22T08:40:05.441Z,0.37
2019-02-22T08:42:34.323Z,0.43
2019-02-22T08:45:03.403Z,0.26
2019-02-22T08:47:32.303Z,0.30
2019-02-22T08:50:01.243Z,0.29
2019-02-22T08:52:30.120Z,0.27
2019-02-22T08:54:59.261Z,0.32
2019-02-22T08:57:28.161Z,0.30
2019-02-22T08:59:57.047Z,0.20
2019-02-22T09:02:26.060Z,0.36
2019-02-22T09:04:54.921Z,0.51
2019-02-22T09:07:24.001Z,0.49
2019-02-22T09:09:52.877Z,0.62
2019-02-22T09:12:21.741Z,0.70
2019-02-22T09:14:50.641Z,1.06
2019-02-22T09:17:19.502Z,1.34
2019-02-22T09:19:48.402Z,1.32
2019-02-22T09:22:22.830Z,1.44
2019-02-22T09:24:47.917Z,1.41
2019-02-22T09:27:16.833Z,1.12
2019-02-22T09:29:45.840Z,1.16
2019-02-22T09:32:14.840Z,1.25
2019-02-22T09:34:46.038Z,1.14
2019-02-22T09:37:14.401Z,1.05
2019-02-22T09:39:43.300Z,0.96
2019-02-22T09:42:12.181Z,1.01
2019-02-22T09:44:41.081Z,0.94
2019-02-22T09:47:09.941Z,1.07
2019-02-22T09:49:38.821Z,1.51
2019-02-22T09:52:07.759Z,2.21
2019-02-22T09:54:36.640Z,2.02
2019-02-22T09:57:05.821Z,1.95
2019-02-22T09:59:34.800Z,2.40
2019-02-22T10:02:03.660Z,3.69
2019-02-22T10:04:32.621Z,5.62
2019-02-22T10:07:01.581Z,7.59
2019-02-22T10:09:30.421Z,8.83
2019-02-22T10:11:59.460Z,10.27
2019-02-22T10:14:28.658Z,11.38
2019-02-22T10:16:57.753Z,11.53
2019-02-22T10:19:26.952Z,10.83
2019-02-22T10:21:57.644Z,10.36
2019-02-22T10:24:26.859Z,10.49
2019-02-22T10:26:55.719Z,11.04
2019-02-22T10:29:25.013Z,11.88
2019-02-22T10:31:54.418Z,12.53
2019-02-22T10:34:23.776Z,13.11
2019-02-22T10:36:53.172Z,13.50
2019-02-22T10:39:22.434Z,12.34
2019-02-22T10:41:51.421Z,11.00
2019-02-22T10:44:20.279Z,10.92
2019-02-22T10:46:49.161Z,10.03
2019-02-22T10:49:18.048Z,10.16
2019-02-22T10:51:47.126Z,10.77
2019-02-22T10:54:16.079Z,10.72
2019-02-22T10:56:44.939Z,11.23
2019-02-22T10:59:13.842Z,11.03
2019-02-22T11:01:42.680Z,10.41
2019-02-22T11:04:11.580Z,9.41
2019-02-22T11:06:40.439Z,8.52
2019-02-22T11:09:09.501Z,9.52
2019-02-22T11:11:38.457Z,10.71
2019-02-22T11:14:07.466Z,11.21
2019-02-22T11:16:36.419Z,11.26
2019-02-22T11:19:05.321Z,12.55
2019-02-22T11:21:34.240Z,12.42
2019-02-22T11:24:03.141Z,13.38
2019-02-22T11:26:32.001Z,13.67
2019-02-22T11:29:00.898Z,13.47
2019-02-22T11:31:29.941Z,13.08
2019-02-22T11:33:58.861Z,11.22
2019-02-22T11:36:27.780Z,10.61
2019-02-22T11:38:56.718Z,10.02
2019-02-22T11:41:26.120Z,9.47
2019-02-22T11:43:55.020Z,9.14
2019-02-22T11:46:23.902Z,9.27
2019-02-22T11:48:52.765Z,10.01
2019-02-22T11:51:21.740Z,10.91
2019-02-22T11:53:50.600Z,11.14
2019-02-22T11:56:19.563Z,11.64
2019-02-22T11:58:48.681Z,12.17
2019-02-22T12:01:17.760Z,11.98
2019-02-22T12:03:46.640Z,12.59
2019-02-22T12:06:15.520Z,12.47
2019-02-22T12:08:44.620Z,13.18
2019-02-22T12:11:13.580Z,13.04
2019-02-22T12:13:42.480Z,13.95
2019-02-22T12:16:11.461Z,14.32
2019-02-22T12:18:40.361Z,15.20
2019-02-22T12:21:09.250Z,15.66
2019-02-22T12:23:38.341Z,15.60
2019-02-22T12:26:07.220Z,15.18
2019-02-22T12:28:36.180Z,14.78
2019-02-22T12:31:05.461Z,14.41
2019-02-22T12:33:34.340Z,14.01
2019-02-22T12:36:03.283Z,14.21
2019-02-22T12:38:32.181Z,14.39
2019-02-22T12:41:01.020Z,15.08
2019-02-22T12:43:29.922Z,14.78
2019-02-22T12:45:58.840Z,14.58
2019-02-22T12:48:27.661Z,15.07
2019-02-22T12:50:56.526Z,14.79
2019-02-22T12:53:25.529Z,13.80
2019-02-22T12:55:54.484Z,12.92
2019-02-22T12:58:23.403Z,12.65
2019-02-22T13:00:52.324Z,12.97
2019-02-22T13:03:21.240Z,12.90
2019-02-22T13:05:50.120Z,13.41
2019-02-22T13:08:19.507Z,13.33
2019-02-22T13:10:48.440Z,13.46
2019-02-22T13:13:17.400Z,12.78
2019-02-22T13:15:46.381Z,13.12
2019-02-22T13:18:15.600Z,14.28
2019-02-22T13:20:44.480Z,13.09
2019-02-22T13:23:13.441Z,13.31
2019-02-22T13:25:42.627Z,12.50
2019-02-22T13:28:11.480Z,12.69
2019-02-22T13:30:40.442Z,12.97
2019-02-22T13:33:09.501Z,12.40
2019-02-22T13:35:38.481Z,12.43
2019-02-22T13:38:07.668Z,13.11
2019-02-22T13:40:36.781Z,13.53
2019-02-22T13:43:05.800Z,12.73
2019-02-22T13:45:34.845Z,13.10
2019-02-22T13:48:03.883Z,12.01
2019-02-22T13:50:32.940Z,11.49
2019-02-22T13:53:01.858Z,11.78
2019-02-22T13:55:30.870Z,12.15
2019-02-22T13:57:59.985Z,12.79
2019-02-22T14:00:28.964Z,12.07
2019-02-22T14:02:57.960Z,11.22
2019-02-22T14:05:27.103Z,10.41
2019-02-22T14:07:56.962Z,9.94
2019-02-22T14:10:26.681Z,9.98
2019-02-22T14:12:55.640Z,10.22
2019-02-22T14:15:24.886Z,9.32
2019-02-22T14:17:54.060Z,9.44
2019-02-22T14:20:23.224Z,9.40
2019-02-22T14:22:52.681Z,9.86
2019-02-22T14:25:21.860Z,9.69
2019-02-22T14:27:50.900Z,9.26
2019-02-22T14:30:20.020Z,9.33
2019-02-22T14:32:49.080Z,9.48
2019-02-22T14:35:18.182Z,9.36
2019-02-22T14:37:47.345Z,9.63
2019-02-22T14:40:16.762Z,10.06
2019-02-22T14:42:45.764Z,9.37
2019-02-22T14:45:14.965Z,8.92
2019-02-22T14:47:44.204Z,8.56
2019-02-22T14:50:15.522Z,8.71
2019-02-22T14:52:44.762Z,8.44
2019-02-22T14:55:14.081Z,8.42
2019-02-22T14:57:45.177Z,8.39
2019-02-22T15:00:16.242Z,8.22
2019-02-22T15:02:45.362Z,8.54
2019-02-22T15:05:15.403Z,7.94
2019-02-22T15:07:44.657Z,7.52
2019-02-22T15:10:13.967Z,7.59
2019-02-22T15:12:43.148Z,7.74
2019-02-22T15:15:17.081Z,7.10
2019-02-22T15:17:59.849Z,7.60
2019-02-22T15:20:29.010Z,7.98
2019-02-22T15:22:58.136Z,8.09
2019-02-22T15:25:27.319Z,7.97
2019-02-22T15:27:56.407Z,7.78
2019-02-22T15:30:25.589Z,7.36
2019-02-22T15:32:54.538Z,6.67
2019-02-22T15:35:23.992Z,6.57
2019-02-22T15:37:53.265Z,6.43
2019-02-22T15:40:22.370Z,6.24
2019-02-22T15:42:51.570Z,6.49
2019-02-22T15:45:20.960Z,6.83
2019-02-22T15:47:50.185Z,6.28
2019-02-22T15:50:19.884Z,6.39
2019-02-22T15:52:50.081Z,5.56
2019-02-22T15:55:19.224Z,5.29
2019-02-22T15:57:48.433Z,4.99
2019-02-22T16:00:26.615Z,5.13
2019-02-22T16:02:55.761Z,4.89
2019-02-22T16:05:26.440Z,4.13
2019-02-22T16:07:55.764Z,3.57
2019-02-22T16:10:24.885Z,2.88
2019-02-22T16:12:54.108Z,2.51
2019-02-22T16:15:23.321Z,2.08
2019-02-22T16:17:52.439Z,1.72
2019-02-22T16:20:21.720Z,1.43
2019-02-22T16:22:51.973Z,0.97
2019-02-22T16:25:21.283Z,0.99
2019-02-22T16:27:50.400Z,0.99
2019-02-22T16:30:21.137Z,0.92
2019-02-22T16:32:50.294Z,0.92
2019-02-22T16:35:19.601Z,0.71
2019-02-22T16:37:48.800Z,0.66
2019-02-22T16:40:17.960Z,0.36
2019-02-22T16:42:47.124Z,0.32
2019-02-22T16:45:16.360Z,0.09
2019-02-22T16:47:45.490Z,0.10
2019-02-22T16:50:15.122Z,0.05
2019-02-22T16:52:45.363Z,-0.03
2019-02-22T16:55:17.962Z,-0.14
2019-02-22T16:57:47.241Z,-0.14
2019-02-22T17:00:17.489Z,-0.15
2019-02-22T17:02:47.084Z,-0.38
2019-02-22T17:05:17.485Z,-0.50
2019-02-22T17:07:46.680Z,-0.53
2019-02-22T17:10:15.797Z,-0.59
2019-02-22T17:12:45.003Z,-0.54
2019-02-22T17:15:15.240Z,-0.50
2019-02-22T17:17:44.565Z,-0.56
2019-02-22T17:20:15.042Z,-0.62
2019-02-22T17:22:44.119Z,-0.66
2019-02-22T17:25:20.383Z,-0.68
2019-02-22T17:27:49.642Z,-0.68
2019-02-22T17:30:20.373Z,-0.85
2019-02-22T17:32:49.681Z,-0.93
2019-02-22T17:35:20.040Z,-0.98
2019-02-22T17:37:49.322Z,-1.09
2019-02-22T17:40:24.242Z,-1.02
2019-02-22T17:42:53.490Z,-1.14
2019-02-22T17:45:22.760Z,-1.30
2019-02-22T17:47:52.082Z,-1.25
2019-02-22T17:50:21.321Z,-1.26
2019-02-22T17:52:50.562Z,-1.32
2019-02-22T17:55:19.833Z,-1.35
2019-02-22T17:57:49.004Z,-1.35
2019-02-22T18:00:19.962Z,-1.41
2019-02-22T18:02:49.204Z,-1.53
2019-02-22T18:05:18.361Z,-1.53
2019-02-22T18:07:47.568Z,-1.55
2019-02-22T18:10:16.761Z,-1.61
2019-02-22T18:12:45.881Z,-1.65
2019-02-22T18:15:17.401Z,-1.66
2019-02-22T18:17:47.560Z,-1.58
2019-02-22T18:20:16.811Z,-1.64
2019-02-22T18:22:46.039Z,-1.65
2019-02-22T18:25:15.203Z,-1.86
2019-02-22T18:27:44.402Z,-1.76
2019-02-22T18:30:16.361Z,-1.68
2019-02-22T18:32:45.680Z,-1.81
2019-02-22T18:35:14.960Z,-1.81
2019-02-22T18:37:44.287Z,-1.80
2019-02-22T18:40:20.359Z,-1.73
2019-02-22T18:42:49.604Z,-1.91
2019-02-22T18:45:18.881Z,-1.83
2019-02-22T18:47:48.163Z,-1.89
2019-02-22T18:50:17.411Z,-1.98
2019-02-22T18:52:46.601Z,-2.02
2019-02-22T18:55:15.800Z,-2.03
2019-02-22T18:57:45.060Z,-1.97
2019-02-22T19:00:17.049Z,-1.96
2019-02-22T19:02:48.000Z,-2.11
2019-02-22T19:05:17.243Z,-2.26
2019-02-22T19:07:46.446Z,-1.97
2019-02-22T19:10:17.330Z,-2.06
2019-02-22T19:12:46.411Z,-2.08
2019-02-22T19:15:16.041Z,-2.09
2019-02-22T19:17:45.322Z,-2.08
2019-02-22T19:20:16.843Z,-2.31
2019-02-22T19:22:46.045Z,-2.38
2019-02-22T19:25:15.362Z,-2.46
2019-02-22T19:27:46.562Z,-2.47
2019-02-22T19:30:20.528Z,-2.31
2019-02-22T19:32:49.879Z,-2.31
2019-02-22T19:35:19.175Z,-2.33
2019-02-22T19:37:48.479Z,-2.41
2019-02-22T19:40:23.321Z,-2.37
2019-02-22T19:42:52.599Z,-2.49
2019-02-22T19:45:21.880Z,-2.37
2019-02-22T19:47:51.289Z,-2.37
2019-02-22T19:50:21.962Z,-2.57
2019-02-22T19:52:51.281Z,-2.74
2019-02-22T19:55:21.084Z,-2.81
2019-02-22T19:57:50.399Z,-2.86
2019-02-22T20:00:20.243Z,-2.82
2019-02-22T20:02:49.562Z,-2.77
2019-02-22T20:05:18.959Z,-2.72
2019-02-22T20:07:48.283Z,-2.81
2019-02-22T20:10:22.361Z,-2.69
2019-02-22T20:12:51.601Z,-2.87
2019-02-22T20:15:20.962Z,-2.95
2019-02-22T20:17:54.559Z,-2.80
2019-02-22T20:20:22.080Z,-2.84
2019-02-22T20:22:51.325Z,-2.94
2019-02-22T20:25:22.161Z,-2.90
2019-02-22T20:27:51.399Z,-2.89
2019-02-22T20:30:20.868Z,-2.91
2019-02-22T20:32:50.159Z,-3.02
2019-02-22T20:35:24.523Z,-3.08
2019-02-22T20:37:53.849Z,-3.14
2019-02-22T20:40:23.199Z,-3.23
2019-02-22T20:42:52.441Z,-3.18
2019-02-22T20:45:21.761Z,-3.10
2019-02-22T20:47:51.043Z,-3.25
2019-02-22T20:50:20.202Z,-3.25
2019-02-22T20:52:49.484Z,-3.30
2019-02-22T20:55:18.764Z,-3.26
2019-02-22T20:57:48.130Z,-3.28
2019-02-22T21:00:19.940Z,-3.15
2019-02-22T21:02:49.218Z,-3.23
2019-02-22T21:05:18.531Z,-3.18
2019-02-22T21:07:47.780Z,-3.33
2019-02-22T21:10:18.779Z,-3.24
2019-02-22T21:12:47.951Z,-3.30
2019-02-22T21:15:17.331Z,-3.32
2019-02-22T21:17:46.490Z,-3.24
2019-02-22T21:20:18.423Z,-3.30
2019-02-22T21:22:47.737Z,-3.38
2019-02-22T21:25:16.900Z,-3.38
2019-02-22T21:27:46.179Z,-3.47
2019-02-22T21:30:20.260Z,-3.47
2019-02-22T21:32:49.539Z,-3.39
2019-02-22T21:35:18.701Z,-3.42
2019-02-22T21:37:47.779Z,-3.34
2019-02-22T21:40:17.019Z,-3.42
2019-02-22T21:42:46.068Z,-3.46
2019-02-22T21:45:16.178Z,-3.41
2019-02-22T21:47:54.161Z,-3.47
2019-02-22T21:50:17.299Z,-3.44
2019-02-22T21:52:46.543Z,-3.52
2019-02-22T21:55:16.306Z,-3.47
2019-02-22T21:57:45.537Z,-3.58
2019-02-22T22:00:23.179Z,-3.58
2019-02-22T22:02:52.178Z,-3.51
2019-02-22T22:05:21.307Z,-3.49
2019-02-22T22:07:50.378Z,-3.56
2019-02-22T22:10:19.659Z,-3.56
2019-02-22T22:12:48.628Z,-3.62
2019-02-22T22:15:17.699Z,-3.65
2019-02-22T22:17:46.822Z,-3.66
2019-02-22T22:20:15.858Z,-3.68
2019-02-22T22:22:44.908Z,-3.69
2019-02-22T22:25:15.985Z,-3.77
2019-02-22T22:27:44.979Z,-3.75
2019-02-22T22:30:15.058Z,-3.61
2019-02-22T22:32:44.101Z,-3.73
2019-02-22T22:35:18.220Z,-3.81
2019-02-22T22:37:47.260Z,-3.86
2019-02-22T22:40:16.350Z,-3.80
2019-02-22T22:42:45.340Z,-3.85
2019-02-22T22:45:17.634Z,-3.92
2019-02-22T22:47:46.539Z,-3.92
2019-02-22T22:50:16.742Z,-4.01
2019-02-22T22:52:45.667Z,-4.04
2019-02-22T22:55:14.714Z,-4.01
2019-02-22T22:57:43.804Z,-4.03
2019-02-22T23:00:53.106Z,-4.04
2019-02-22T23:03:22.301Z,-4.00
2019-02-22T23:05:51.349Z,-4.12
2019-02-22T23:08:20.339Z,-4.10
2019-02-22T23:10:49.618Z,-4.15
2019-02-22T23:13:18.740Z,-4.14
2019-02-22T23:15:47.659Z,-4.15
2019-02-22T23:18:16.620Z,-4.20
2019-02-22T23:20:45.780Z,-4.22
2019-02-22T23:23:14.668Z,-4.19
2019-02-22T23:25:43.703Z,-4.16
2019-02-22T23:28:12.658Z,-4.26
2019-02-22T23:30:41.748Z,-4.27
2019-02-22T23:33:10.659Z,-4.29
2019-02-22T23:35:39.779Z,-4.30
2019-02-22T23:38:08.658Z,-4.27
2019-02-22T23:40:37.699Z,-4.33
2019-02-22T23:43:06.772Z,-4.35
2019-02-22T23:45:35.777Z,-4.39
2019-02-22T23:48:04.738Z,-4.52
2019-02-22T23:50:33.818Z,-4.44
2019-02-22T23:53:02.779Z,-4.43
2019-02-22T23:55:31.899Z,-4.41
2019-02-22T23:58:00.817Z,-4.45
